Time;durP1;ratioP1;P1;durP2;ratioP2;P2;SDS_P1;SDS_P2;PMS_P1;PMS_P2;Temp;Humidity;BMP_temperature;BMP_pressure;BME280_temperature;BME280_humidity;BME280_pressure;Samples;Min_cycle;Max_cycle;Signal;HPM_P1;HPM_P2
2022/01/05 00:01:09;;;;;;;9.32;2.22;;;;;;;6.04;65.33;99952.50;4942420;29;20024;-96
2022/01/05 00:03:36;;;;;;;8.50;1.83;;;;;;;6.20;64.30;99958.53;4937390;29;20558;-96
2022/01/05 00:06:02;;;;;;;5.00;1.92;;;;;;;6.27;63.40;99959.84;4921854;29;20031;-96
2022/01/05 00:08:27;;;;;;;10.25;2.08;;;;;;;6.22;63.53;99969.72;4922620;29;20028;-95
2022/01/05 00:10:52;;;;;;;7.18;1.70;;;;;;;6.39;63.46;99962.69;4920714;29;20465;-96
2022/01/05 00:13:18;;;;;;;12.88;1.80;;;;;;;6.28;62.75;99965.91;4919478;29;20024;-96
2022/01/05 00:15:44;;;;;;;7.22;1.80;;;;;;;6.32;63.54;99965.66;4920353;29;20024;-96
2022/01/05 00:18:09;;;;;;;10.75;1.80;;;;;;;6.16;62.86;99957.00;4919531;29;20173;-96
2022/01/05 00:20:35;;;;;;;5.50;1.77;;;;;;;6.34;63.22;99958.59;4920773;29;20028;-96
2022/01/05 00:23:00;;;;;;;11.65;2.30;;;;;;;6.50;63.58;99960.31;4921393;29;20028;-96
2022/01/05 00:25:25;;;;;;;11.48;1.90;;;;;;;6.52;63.25;99961.91;4920920;29;20025;-96
2022/01/05 00:27:51;;;;;;;12.75;3.08;;;;;;;6.48;63.53;99973.44;4921231;29;20109;-96
2022/01/05 00:30:16;;;;;;;9.63;1.48;;;;;;;6.48;63.30;99964.78;4921120;29;20043;-96
2022/01/05 00:32:42;;;;;;;13.40;2.35;;;;;;;6.43;63.57;99959.81;4920277;29;20467;-96
2022/01/05 00:35:08;;;;;;;11.40;2.28;;;;;;;6.37;63.96;99957.56;4919738;29;20057;-96
2022/01/05 00:37:33;;;;;;;7.60;1.90;;;;;;;6.48;63.57;99962.16;4936144;29;20042;-95
2022/01/05 00:39:58;;;;;;;15.15;2.22;;;;;;;6.46;63.36;99961.41;4939642;29;20027;-96
2022/01/05 00:42:24;;;;;;;9.75;1.85;;;;;;;6.44;63.91;99963.28;4939528;29;20091;-96
2022/01/05 00:44:50;;;;;;;8.48;1.52;;;;;;;6.46;64.11;99969.25;4940192;29;20032;-96
2022/01/05 00:47:16;;;;;;;6.05;1.20;;;;;;;6.43;63.22;99970.25;4939357;29;20032;-95
2022/01/05 00:49:42;;;;;;;13.65;1.73;;;;;;;6.32;63.44;99973.47;4939754;29;20036;-96
2022/01/05 00:52:07;;;;;;;15.30;3.08;;;;;;;6.33;63.40;99972.53;4938848;29;20035;-96
2022/01/05 00:54:33;;;;;;;9.45;2.17;;;;;;;6.25;63.02;99974.75;4938323;29;20043;-96
2022/01/05 00:56:58;;;;;;;10.80;2.58;;;;;;;6.32;63.38;99978.69;4939102;29;20064;-95
2022/01/05 00:59:24;;;;;;;7.72;1.95;;;;;;;6.31;63.55;99977.00;4938799;29;20032;-95
2022/01/05 01:01:50;;;;;;;6.85;1.45;;;;;;;6.32;63.42;99981.31;4938641;29;20087;-96
2022/01/05 01:04:15;;;;;;;16.23;3.08;;;;;;;6.23;63.30;99979.22;4939016;29;20489;-95
2022/01/05 01:06:41;;;;;;;11.63;2.53;;;;;;;6.25;63.99;99981.72;4938921;29;20024;-95
2022/01/05 01:09:07;;;;;;;10.73;2.13;;;;;;;6.26;64.42;99992.09;4921258;29;20465;-95
2022/01/05 01:11:33;;;;;;;7.10;2.00;;;;;;;6.19;64.05;99982.91;4919287;29;20032;-95
2022/01/05 01:13:58;;;;;;;8.60;2.30;;;;;;;6.02;64.42;99985.63;4919701;29;20078;-95
2022/01/05 01:16:24;;;;;;;15.88;2.90;;;;;;;6.09;64.59;99981.75;4919580;29;20028;-95
2022/01/05 01:18:49;;;;;;;8.70;2.28;;;;;;;6.06;64.92;99977.56;4919752;29;20035;-95
2022/01/05 01:21:15;;;;;;;12.77;3.28;;;;;;;5.87;64.62;99982.91;4919325;29;20028;-95
2022/01/05 01:23:48;;;;;;;12.82;2.40;;;;;;;6.02;64.56;99986.47;4919299;29;20032;-95
2022/01/05 01:26:14;;;;;;;11.95;2.33;;;;;;;6.04;64.03;99991.59;4919418;29;20087;-95
2022/01/05 01:28:39;;;;;;;13.95;3.03;;;;;;;6.22;63.94;99990.56;4918815;29;20080;-95
2022/01/05 01:31:05;;;;;;;12.15;2.58;;;;;;;6.32;63.59;99989.13;4926798;29;20035;-95
2022/01/05 01:33:30;;;;;;;11.18;2.70;;;;;;;6.44;63.75;99984.16;4936954;29;20087;-95
2022/01/05 01:35:55;;;;;;;11.15;2.42;;;;;;;6.38;64.32;99993.16;4937568;29;20028;-95
2022/01/05 01:38:21;;;;;;;20.25;2.92;;;;;;;6.30;64.50;99984.91;4937841;29;20493;-95
2022/01/05 01:40:46;;;;;;;17.63;2.65;;;;;;;6.47;64.23;99989.16;4937688;29;20023;-94
2022/01/05 01:43:12;;;;;;;14.60;2.80;;;;;;;6.29;64.76;99994.50;4936571;29;20079;-95
2022/01/05 01:45:37;;;;;;;8.15;2.65;;;;;;;6.47;63.70;99991.78;4918612;29;20028;-95
2022/01/05 01:48:03;;;;;;;14.13;2.53;;;;;;;6.57;64.18;100000.75;4918398;29;20059;-95
2022/01/05 01:50:28;;;;;;;16.90;2.72;;;;;;;6.65;63.88;100006.34;4918616;29;20047;-94
2022/01/05 01:52:54;;;;;;;13.93;2.03;;;;;;;6.74;63.87;100008.44;4918670;29;20016;-96
2022/01/05 01:55:20;;;;;;;19.75;2.55;;;;;;;6.64;64.15;100012.50;4917495;29;20075;-94
2022/01/05 01:57:46;;;;;;;17.00;3.97;;;;;;;6.49;64.04;100021.22;4918484;29;20036;-96
2022/01/05 02:00:13;;;;;;;19.35;2.10;;;;;;;6.32;64.34;100019.59;4919255;29;20484;-96
2022/01/05 02:02:39;;;;;;;9.60;2.63;;;;;;;6.49;64.29;100021.22;4917077;29;20036;-95
2022/01/05 02:05:06;;;;;;;9.95;2.33;;;;;;;6.65;62.95;100029.81;4918388;29;20024;-96
2022/01/05 02:07:32;;;;;;;13.10;3.40;;;;;;;6.53;63.68;100020.94;4918358;29;20036;-94
2022/01/05 02:09:58;;;;;;;12.68;1.73;;;;;;;6.55;64.17;100020.84;4918833;29;20051;-94
2022/01/05 02:12:26;;;;;;;11.70;1.90;;;;;;;6.57;64.25;100024.22;4918264;29;20494;-95
2022/01/05 02:14:53;;;;;;;10.07;1.70;;;;;;;6.84;62.97;100027.00;4917740;29;20039;-95
2022/01/05 02:17:22;;;;;;;11.77;1.92;;;;;;;6.81;63.89;100026.34;4917104;29;20040;-94
2022/01/05 02:19:48;;;;;;;9.95;2.00;;;;;;;6.80;64.16;100017.69;4917988;29;20034;-95
2022/01/05 02:22:13;;;;;;;14.43;2.17;;;;;;;6.84;64.44;100026.16;4917968;29;20032;-96
2022/01/05 02:24:39;;;;;;;7.68;1.98;;;;;;;6.88;63.29;100038.09;4918093;29;20486;-96
2022/01/05 02:27:05;;;;;;;13.85;3.17;;;;;;;6.94;63.04;100043.78;4917639;29;20474;-95
2022/01/05 02:29:30;;;;;;;15.32;2.17;;;;;;;6.88;62.95;100032.88;4917484;29;20040;-95
2022/01/05 02:32:00;;;;;;;11.32;3.55;;;;;;;6.96;63.21;100035.88;4928204;29;20490;-95
2022/01/05 02:34:25;;;;;;;9.00;2.50;;;;;;;6.90;63.20;100031.03;4937065;29;20032;-96
2022/01/05 02:36:51;;;;;;;8.18;1.77;;;;;;;6.80;62.64;100040.34;4936489;29;20046;-96
2022/01/05 02:39:16;;;;;;;9.07;1.73;;;;;;;6.84;64.03;100037.44;4936931;29;20026;-95
2022/01/05 02:41:41;;;;;;;20.15;3.13;;;;;;;6.74;63.29;100034.53;4937248;29;20062;-95
2022/01/05 02:44:07;;;;;;;12.27;2.47;;;;;;;6.83;63.16;100043.59;4936850;29;20474;-95
2022/01/05 02:46:34;;;;;;;10.50;1.98;;;;;;;6.70;63.04;100035.63;4935116;29;20470;-94
2022/01/05 02:49:02;;;;;;;13.85;2.05;;;;;;;6.71;63.15;100032.13;4936308;29;20031;-95
2022/01/05 02:51:28;;;;;;;8.93;2.65;;;;;;;6.67;63.99;100040.19;4936235;29;20063;-95
2022/01/05 02:53:53;;;;;;;13.30;2.20;;;;;;;6.57;63.42;100039.88;4936518;29;20384;-95
2022/01/05 02:56:19;;;;;;;14.00;2.13;;;;;;;6.53;63.56;100048.81;4936361;29;20114;-96
2022/01/05 02:58:44;;;;;;;14.25;2.30;;;;;;;6.57;63.97;100059.91;4935874;29;20023;-95
2022/01/05 03:01:10;;;;;;;16.80;2.20;;;;;;;6.43;63.79;100042.44;4934647;29;20032;-95
2022/01/05 03:03:35;;;;;;;12.45;2.67;;;;;;;6.40;63.87;100046.06;4936092;29;20030;-95
2022/01/05 03:06:01;;;;;;;17.23;2.20;;;;;;;6.53;63.80;100038.38;4936553;29;20047;-95
2022/01/05 03:08:26;;;;;;;11.10;2.10;;;;;;;6.54;63.83;100055.72;4936261;29;20040;-95
2022/01/05 03:10:52;;;;;;;10.52;2.20;;;;;;;6.47;63.34;100049.16;4936685;29;20051;-95
2022/01/05 03:13:17;;;;;;;13.15;1.50;;;;;;;6.61;63.53;100046.59;4937075;29;20075;-95
2022/01/05 03:15:42;;;;;;;13.77;2.10;;;;;;;6.73;63.22;100050.25;4936675;29;20465;-94
2022/01/05 03:18:08;;;;;;;13.57;2.85;;;;;;;6.87;62.13;100047.72;4936519;29;20098;-94
2022/01/05 03:20:34;;;;;;;14.00;2.42;;;;;;;6.91;63.61;100053.56;4936467;29;20078;-95
2022/01/05 03:23:00;;;;;;;19.55;2.13;;;;;;;6.75;62.54;100057.09;4936334;29;20086;-95
2022/01/05 03:25:26;;;;;;;10.05;2.03;;;;;;;6.91;62.90;100054.44;4936483;29;20027;-96
2022/01/05 03:27:53;;;;;;;12.73;1.90;;;;;;;7.04;63.67;100057.16;4936450;29;20039;-95
2022/01/05 03:30:21;;;;;;;10.45;2.42;;;;;;;7.12;62.93;100054.94;4931482;29;20452;-95
2022/01/05 03:35:29;;;;;;;13.55;2.42;;;;;;;7.22;62.85;100073.50;4920209;29;20035;-95
2022/01/05 03:37:56;;;;;;;18.63;7.13;;;;;;;7.26;62.81;100058.50;4921008;29;20111;-95
2022/01/05 03:40:22;;;;;;;17.30;3.55;;;;;;;7.11;63.25;100070.69;4918660;29;20036;-96
2022/01/05 03:42:47;;;;;;;9.02;1.98;;;;;;;7.01;63.37;100065.19;4970737;23;20051;-95
2022/01/05 03:45:13;;;;;;;10.50;1.83;;;;;;;7.17;63.02;100070.34;4949229;29;20560;-95
2022/01/05 03:47:39;;;;;;;14.38;2.25;;;;;;;7.11;63.15;100076.75;4936226;29;20031;-95
2022/01/05 03:50:05;;;;;;;16.25;3.17;;;;;;;7.09;62.97;100073.41;4936114;29;20114;-95
2022/01/05 03:52:31;;;;;;;16.17;2.67;;;;;;;7.17;63.58;100077.31;4935763;29;20040;-96
2022/01/05 03:54:57;;;;;;;9.48;1.98;;;;;;;7.10;63.62;100074.22;4934817;29;20035;-94
2022/01/05 03:57:24;;;;;;;12.90;1.90;;;;;;;7.11;64.14;100071.53;4935732;29;20028;-95
2022/01/05 03:59:50;;;;;;;20.08;2.63;;;;;;;7.13;63.53;100079.28;4938341;29;20030;-95
2022/01/05 04:02:15;;;;;;;12.73;2.03;;;;;;;7.20;63.33;100090.19;4934505;29;20474;-95
2022/01/05 04:04:41;;;;;;;10.75;1.80;;;;;;;7.05;62.92;100084.09;4935665;29;20032;-95
2022/01/05 04:07:06;;;;;;;10.65;1.48;;;;;;;7.11;62.53;100088.97;4935293;29;20478;-94
2022/01/05 04:09:31;;;;;;;13.48;2.05;;;;;;;7.12;62.50;100094.09;4942915;28;20051;-94
2022/01/05 04:11:57;;;;;;;10.45;1.48;;;;;;;7.19;62.63;100098.94;4953941;28;20032;-94
2022/01/05 04:14:22;;;;;;;14.98;1.60;;;;;;;7.09;62.18;100091.66;4958672;28;20466;-95
2022/01/05 04:16:48;;;;;;;12.68;1.92;;;;;;;7.07;62.51;100096.16;4957836;29;20037;-94
2022/01/05 04:19:13;;;;;;;8.00;1.60;;;;;;;6.88;62.70;100104.19;4957506;29;20027;-96
2022/01/05 04:21:39;;;;;;;10.48;2.05;;;;;;;6.92;62.66;100091.81;4958615;28;20047;-95
2022/01/05 04:24:04;;;;;;;10.00;2.03;;;;;;;6.93;62.12;100096.09;4958872;28;20078;-95
2022/01/05 04:26:30;;;;;;;6.82;1.58;;;;;;;6.91;62.32;100106.63;4959007;28;20023;-95
2022/01/05 04:28:55;;;;;;;6.75;1.60;;;;;;;6.87;62.47;100105.13;4958449;29;20020;-94
2022/01/05 04:31:21;;;;;;;5.68;1.40;;;;;;;6.77;62.81;100113.56;4942618;29;20036;-95
2022/01/05 04:33:46;;;;;;;10.30;1.83;;;;;;;6.58;62.81;100119.81;4939067;29;20023;-95
2022/01/05 04:36:12;;;;;;;13.55;3.08;;;;;;;6.74;62.86;100115.41;4939136;29;20099;-94
2022/01/05 04:38:37;;;;;;;10.77;1.30;;;;;;;6.66;62.98;100116.78;4939005;29;20056;-94
2022/01/05 04:41:02;;;;;;;16.13;2.17;;;;;;;6.51;64.03;100123.69;4940718;29;20020;-94
2022/01/05 04:43:28;;;;;;;9.27;1.88;;;;;;;6.60;63.49;100122.34;4940055;29;20032;-95
2022/01/05 04:45:53;;;;;;;8.13;1.55;;;;;;;6.57;63.12;100127.72;4941052;29;20031;-94
2022/01/05 04:48:18;;;;;;;8.93;1.52;;;;;;;6.63;63.75;100132.59;4940924;29;20059;-95
2022/01/05 04:50:44;;;;;;;20.42;2.00;;;;;;;6.53;64.49;100133.09;4940009;29;20028;-95
2022/01/05 04:53:13;;;;;;;12.68;1.95;;;;;;;6.27;63.91;100146.75;4940236;29;20030;-95
2022/01/05 04:55:42;;;;;;;14.43;3.03;;;;;;;6.32;65.30;100140.34;4939317;29;20297;-95
2022/01/05 04:58:07;;;;;;;13.32;2.17;;;;;;;6.59;64.21;100142.34;4939592;29;20118;-96
2022/01/05 05:00:33;;;;;;;8.02;1.67;;;;;;;6.39;64.56;100140.84;4943015;29;20070;-95
2022/01/05 05:02:58;;;;;;;14.73;2.10;;;;;;;6.32;64.51;100135.16;4939242;29;20055;-95
2022/01/05 05:05:24;;;;;;;13.48;1.83;;;;;;;6.64;63.82;100129.91;4956120;29;20400;-96
2022/01/05 05:07:49;;;;;;;10.57;2.17;;;;;;;6.60;64.12;100133.63;4957550;28;20038;-95
2022/01/05 05:10:15;;;;;;;19.02;2.80;;;;;;;6.34;64.39;100141.13;4957498;29;20053;-95
2022/01/05 05:12:40;;;;;;;12.10;2.92;;;;;;;6.62;63.61;100141.38;4957052;28;20028;-95
2022/01/05 05:15:06;;;;;;;7.35;2.15;;;;;;;6.57;63.71;100146.81;4957236;29;20123;-95
2022/01/05 05:17:31;;;;;;;14.60;3.08;;;;;;;6.51;63.48;100144.56;4957161;28;20375;-95
2022/01/05 05:19:57;;;;;;;9.75;1.63;;;;;;;6.57;63.64;100149.44;4954060;28;20034;-96
2022/01/05 05:22:22;;;;;;;12.27;2.08;;;;;;;6.63;63.29;100148.25;4956604;28;20023;-95
2022/01/05 05:24:47;;;;;;;20.80;3.13;;;;;;;6.58;63.38;100151.13;4957251;29;20023;-93
2022/01/05 05:27:13;;;;;;;13.70;1.90;;;;;;;6.51;63.33;100160.22;4957363;29;20023;-95
2022/01/05 05:29:38;;;;;;;11.88;1.73;;;;;;;6.64;63.70;100149.94;4957023;28;20034;-95
2022/01/05 05:32:05;;;;;;;11.82;1.88;;;;;;;6.66;63.35;100153.31;4957124;28;20027;-95
2022/01/05 05:34:31;;;;;;;12.10;3.15;;;;;;;6.59;63.41;100147.56;4946160;28;20490;-95
2022/01/05 05:36:57;;;;;;;10.60;1.98;;;;;;;6.58;63.22;100148.53;4937892;29;20032;-95
2022/01/05 05:39:22;;;;;;;12.40;2.55;;;;;;;6.50;63.38;100154.16;4937502;29;20020;-96
2022/01/05 05:41:48;;;;;;;17.65;2.50;;;;;;;6.34;63.81;100151.53;4935887;29;20491;-94
2022/01/05 05:44:13;;;;;;;10.02;2.40;;;;;;;6.52;63.78;100151.47;4937757;29;20031;-95
2022/01/05 05:46:38;;;;;;;10.02;2.33;;;;;;;6.50;63.40;100150.72;4937581;29;20028;-94
2022/01/05 05:49:04;;;;;;;18.33;2.50;;;;;;;6.50;63.18;100148.09;4945041;29;20019;-94
2022/01/05 05:51:29;;;;;;;12.23;2.45;;;;;;;6.56;63.54;100158.19;4956634;29;20492;-95
2022/01/05 05:53:54;;;;;;;13.48;2.30;;;;;;;6.54;63.71;100160.06;4956692;28;20026;-96
2022/01/05 05:56:20;;;;;;;15.65;2.35;;;;;;;6.47;63.77;100163.91;4944954;28;20486;-95
2022/01/05 05:58:45;;;;;;;13.88;3.10;;;;;;;6.51;62.97;100173.25;4938732;29;20110;-96
2022/01/05 06:01:11;;;;;;;10.85;2.00;;;;;;;6.50;63.79;100176.78;4936899;29;20039;-94
2022/01/05 06:03:36;;;;;;;17.80;2.45;;;;;;;6.52;63.89;100165.34;4937182;29;20356;-94
2022/01/05 06:06:01;;;;;;;9.18;1.77;;;;;;;6.63;63.90;100163.91;4937087;29;20038;-94
2022/01/05 06:08:27;;;;;;;11.88;1.85;;;;;;;6.56;63.17;100173.84;4937121;29;20030;-93
2022/01/05 06:10:52;;;;;;;16.30;2.28;;;;;;;6.44;64.03;100169.31;4936960;29;20525;-95
2022/01/05 06:13:17;;;;;;;12.45;1.30;;;;;;;6.42;64.25;100173.75;4937130;29;20552;-95
2022/01/05 06:15:43;;;;;;;7.32;1.65;;;;;;;6.32;63.76;100178.63;4950765;29;20023;-94
2022/01/05 06:18:08;;;;;;;10.13;2.45;;;;;;;6.32;63.95;100176.88;4956361;29;20024;-95
2022/01/05 06:20:34;;;;;;;6.15;1.75;;;;;;;6.26;63.16;100177.19;4956458;29;20027;-96
2022/01/05 06:22:59;;;;;;;6.97;1.40;;;;;;;6.23;63.77;100176.50;4955482;29;20047;-95
2022/01/05 06:25:24;;;;;;;6.97;1.73;;;;;;;6.20;63.83;100181.88;4954395;29;20028;-94
2022/01/05 06:27:50;;;;;;;8.93;1.98;;;;;;;6.05;64.36;100173.13;4954885;29;20034;-95
2022/01/05 06:30:16;;;;;;;12.00;2.45;;;;;;;6.03;63.97;100173.19;4956289;29;20050;-93
2022/01/05 06:32:44;;;;;;;5.20;1.58;;;;;;;6.03;63.56;100190.59;4955833;28;20516;-94
2022/01/05 06:35:10;;;;;;;10.05;1.52;;;;;;;5.94;64.50;100192.75;4958384;28;20077;-96
2022/01/05 06:37:35;;;;;;;16.30;2.08;;;;;;;5.91;65.30;100187.69;4962008;28;20122;-91
2022/01/05 06:40:01;;;;;;;12.60;3.25;;;;;;;5.99;64.89;100194.31;4950498;28;20405;-88
2022/01/05 06:42:26;;;;;;;9.50;1.65;;;;;;;6.06;64.96;100195.66;4954288;29;20031;-89
2022/01/05 06:44:51;;;;;;;6.00;1.40;;;;;;;6.25;64.47;100201.56;4954166;29;20127;-88
2022/01/05 06:47:17;;;;;;;11.73;2.78;;;;;;;6.22;63.31;100195.69;4954601;28;20033;-88
2022/01/05 06:49:43;;;;;;;15.13;1.70;;;;;;;6.26;64.42;100197.19;4949877;28;20041;-87
2022/01/05 06:52:09;;;;;;;14.13;1.98;;;;;;;6.19;64.08;100195.84;4945440;29;20127;-88
2022/01/05 06:54:35;;;;;;;13.23;2.50;;;;;;;6.28;64.00;100198.81;4941630;29;20024;-88
2022/01/05 06:57:01;;;;;;;13.85;2.33;;;;;;;6.23;63.89;100195.59;4945549;29;20401;-86
2022/01/05 06:59:26;;;;;;;9.80;2.30;;;;;;;6.31;64.36;100195.19;4946881;28;20035;-85
2022/01/05 07:01:51;;;;;;;14.05;2.63;;;;;;;6.25;63.17;100200.75;4942171;28;20078;-85
2022/01/05 07:04:17;;;;;;;9.60;1.83;;;;;;;6.22;63.88;100209.56;4943521;29;20035;-85
2022/01/05 07:06:43;;;;;;;15.75;2.45;;;;;;;6.21;64.20;100215.69;4939875;29;20032;-86
2022/01/05 07:09:08;;;;;;;20.25;3.20;;;;;;;6.12;64.54;100226.59;4942395;28;20028;-85
2022/01/05 07:11:35;;;;;;;13.82;2.47;;;;;;;6.33;64.08;100232.47;4943800;29;20028;-85
2022/01/05 07:14:01;;;;;;;9.27;2.58;;;;;;;6.31;64.04;100242.97;4943962;28;20030;-84
2022/01/05 07:16:26;;;;;;;13.52;2.45;;;;;;;6.52;63.55;100240.16;4944839;29;20050;-85
2022/01/05 07:18:52;;;;;;;12.13;2.03;;;;;;;6.44;63.43;100237.13;4947008;28;20046;-85
2022/01/05 07:21:17;;;;;;;9.75;2.00;;;;;;;6.50;63.60;100239.41;4945560;28;20028;-86
2022/01/05 07:23:42;;;;;;;8.63;1.60;;;;;;;6.42;63.92;100242.41;4942905;29;20556;-87
2022/01/05 07:26:08;;;;;;;13.57;2.58;;;;;;;6.51;63.89;100238.47;4943165;29;20481;-86
2022/01/05 07:28:33;;;;;;;10.60;2.47;;;;;;;6.44;63.41;100252.78;4945056;28;20090;-86
2022/01/05 07:30:59;;;;;;;16.27;1.95;;;;;;;6.42;63.72;100247.63;4943898;28;20524;-91
2022/01/05 07:33:26;;;;;;;10.77;1.80;;;;;;;6.50;63.67;100255.03;4938680;29;20036;-88
2022/01/05 07:35:52;;;;;;;12.75;2.17;;;;;;;6.44;64.17;100253.59;4956511;28;20027;-88
2022/01/05 07:38:17;;;;;;;23.70;4.72;;;;;;;6.43;63.91;100253.69;4951751;28;20038;-87
2022/01/05 07:40:43;;;;;;;7.85;1.70;;;;;;;6.45;62.78;100264.88;4955097;28;20031;-86
2022/01/05 07:43:09;;;;;;;15.38;2.60;;;;;;;6.43;63.09;100262.34;4949898;29;20035;-87
2022/01/05 07:45:35;;;;;;;7.35;1.52;;;;;;;6.44;63.41;100264.03;4948998;29;20031;-86
2022/01/05 07:48:04;;;;;;;14.75;2.63;;;;;;;6.46;63.63;100280.44;4952600;28;20074;-86
2022/01/05 07:50:30;;;;;;;15.38;2.78;;;;;;;6.49;64.24;100276.81;4951303;28;20073;-86
2022/01/05 07:52:56;;;;;;;16.90;2.35;;;;;;;6.43;63.59;100271.94;4951292;28;20024;-86
2022/01/05 07:55:21;;;;;;;17.90;1.90;;;;;;;6.47;63.96;100278.66;4951683;29;20039;-86
2022/01/05 07:57:47;;;;;;;21.80;4.10;;;;;;;6.44;63.71;100284.06;4940832;29;20043;-86
2022/01/05 08:00:13;;;;;;;16.02;1.92;;;;;;;6.50;63.81;100283.75;4948600;28;20020;-89
2022/01/05 08:02:38;;;;;;;6.05;1.70;;;;;;;6.44;63.78;100289.28;4956499;29;20526;-88
2022/01/05 08:05:04;;;;;;;15.75;2.08;;;;;;;6.51;64.02;100295.84;4950953;28;20470;-87
2022/01/05 08:07:30;;;;;;;14.63;1.98;;;;;;;6.63;63.62;100295.19;4944841;28;20027;-87
2022/01/05 08:09:55;;;;;;;18.30;2.25;;;;;;;6.56;63.15;100299.06;4944083;28;20386;-85
2022/01/05 08:12:20;;;;;;;6.65;1.83;;;;;;;6.70;62.53;100301.78;4948040;29;20046;-86
2022/01/05 08:14:46;;;;;;;17.42;2.42;;;;;;;6.71;63.36;100298.25;4941056;29;20114;-86
2022/01/05 08:17:11;;;;;;;14.25;2.55;;;;;;;6.79;62.92;100299.59;4949257;28;20019;-85
2022/01/05 08:19:36;;;;;;;24.20;3.47;;;;;;;6.60;63.20;100310.19;4954982;28;20077;-86
2022/01/05 08:22:02;;;;;;;18.73;2.35;;;;;;;6.73;62.77;100312.06;4976131;28;20034;-85
2022/01/05 08:24:28;;;;;;;18.50;2.53;;;;;;;6.47;63.78;100312.56;4952432;28;20438;-89
2022/01/05 08:26:53;;;;;;;10.40;2.33;;;;;;;6.64;63.29;100316.91;4945320;29;20036;-86
2022/01/05 08:29:19;;;;;;;15.15;2.55;;;;;;;6.78;62.94;100324.84;4949960;28;20031;-85
2022/01/05 08:31:44;;;;;;;13.90;2.83;;;;;;;6.86;62.69;100329.66;4945213;28;20030;-86
2022/01/05 08:34:10;;;;;;;13.07;2.70;;;;;;;6.83;62.40;100335.03;4945217;28;20122;-86
2022/01/05 08:36:36;;;;;;;11.57;2.20;;;;;;;6.91;63.07;100344.16;4938708;29;20020;-86
2022/01/05 08:39:03;;;;;;;19.13;2.45;;;;;;;7.00;62.62;100348.03;4953017;29;20086;-86
2022/01/05 08:41:28;;;;;;;12.45;2.60;;;;;;;6.94;63.18;100353.56;4956454;28;20734;-85
2022/01/05 08:43:54;;;;;;;8.75;2.38;;;;;;;7.04;62.34;100352.16;4941731;28;20064;-85
2022/01/05 08:46:20;;;;;;;13.57;2.53;;;;;;;7.07;61.82;100351.13;4937323;29;20038;-85
2022/01/05 08:48:46;;;;;;;16.73;2.03;;;;;;;7.01;62.24;100360.16;4937337;29;20032;-86
2022/01/05 08:51:12;;;;;;;8.07;1.98;;;;;;;7.12;62.35;100349.97;4937118;29;20039;-86
2022/01/05 08:53:37;;;;;;;11.77;1.90;;;;;;;7.17;62.30;100362.78;4937408;29;20062;-85
2022/01/05 08:56:03;;;;;;;15.23;3.00;;;;;;;7.05;62.69;100361.69;4936300;29;20103;-86
2022/01/05 08:58:28;;;;;;;9.27;1.77;;;;;;;7.20;62.43;100365.22;4950148;29;20042;-86
2022/01/05 09:00:54;;;;;;;12.50;1.85;;;;;;;7.78;62.16;100382.06;4956507;29;20090;-86
2022/01/05 09:03:19;;;;;;;7.80;1.63;;;;;;;8.05;61.25;100384.00;4956262;28;20495;-86
2022/01/05 09:05:45;;;;;;;19.77;2.53;;;;;;;8.11;61.13;100391.50;4957458;28;20034;-87
2022/01/05 09:08:11;;;;;;;12.60;1.83;;;;;;;8.16;59.70;100394.69;4956251;28;20043;-87
2022/01/05 09:10:38;;;;;;;16.67;2.15;;;;;;;8.04;59.58;100400.63;4956133;28;20027;-87
2022/01/05 09:13:04;;;;;;;7.45;1.73;;;;;;;7.91;59.30;100400.47;4944134;28;20034;-87
2022/01/05 09:15:30;;;;;;;20.40;5.72;;;;;;;8.02;59.75;100407.72;4936659;29;20035;-87
2022/01/05 09:17:55;;;;;;;14.88;2.10;;;;;;;8.00;60.16;100409.56;4936824;29;20073;-87
2022/01/05 09:20:21;;;;;;;13.75;1.75;;;;;;;8.18;60.21;100418.97;4952149;28;20054;-87
2022/01/05 09:22:47;;;;;;;15.05;1.88;;;;;;;8.16;59.91;100425.25;4955791;28;20023;-87
2022/01/05 09:25:14;;;;;;;13.25;1.80;;;;;;;8.08;60.59;100425.69;4941757;28;20028;-87
2022/01/05 09:27:40;;;;;;;10.93;1.77;;;;;;;8.09;60.66;100433.41;4936745;29;20045;-87
2022/01/05 09:30:08;;;;;;;9.00;2.00;;;;;;;8.14;60.32;100436.63;4937374;29;20035;-87
2022/01/05 09:32:35;;;;;;;18.92;3.85;;;;;;;8.16;60.23;100439.16;4937274;29;20035;-86
2022/01/05 09:35:02;;;;;;;13.50;1.98;;;;;;;8.36;60.23;100442.41;4936414;29;20028;-86
2022/01/05 09:37:33;;;;;;;10.00;1.88;;;;;;;8.42;60.36;100447.31;4936220;29;20402;-86
2022/01/05 09:42:43;;;;;;;9.57;1.85;;;;;;;8.35;59.83;100452.00;4936566;29;20101;-86
2022/01/05 09:45:14;;;;;;;9.63;2.30;;;;;;;8.31;60.03;100450.50;4936527;29;20031;-87
2022/01/05 09:47:58;;;;;;;8.93;1.70;;;;;;;8.43;60.15;100446.34;4940939;29;20042;-87
2022/01/05 09:50:24;;;;;;;7.47;2.05;;;;;;;8.51;59.75;100446.75;4955186;29;20027;-87
2022/01/05 09:52:49;;;;;;;18.00;1.77;;;;;;;8.50;60.54;100450.31;4955291;28;20024;-87
2022/01/05 09:55:16;;;;;;;19.50;2.53;;;;;;;8.91;59.60;100449.63;4954140;29;20375;-87
2022/01/05 09:57:44;;;;;;;14.60;1.90;;;;;;;9.37;59.72;100461.69;4954135;29;20101;-86
2022/01/05 10:00:12;;;;;;;11.18;2.42;;;;;;;9.61;59.12;100457.53;4955278;28;20023;-86
2022/01/05 10:02:42;;;;;;;13.52;2.20;;;;;;;10.20;57.44;100465.13;4948534;28;20478;-86
2022/01/05 10:05:09;;;;;;;13.90;2.00;;;;;;;10.41;55.87;100472.56;4936016;29;20471;-87
2022/01/05 10:07:35;;;;;;;10.25;1.95;;;;;;;10.86;55.38;100473.03;4935619;29;20020;-86
2022/01/05 10:10:00;;;;;;;12.98;1.83;;;;;;;11.38;55.60;100479.94;4936013;29;20410;-87
2022/01/05 10:12:26;;;;;;;11.63;2.10;;;;;;;11.81;53.57;100494.47;4935785;29;20028;-86
2022/01/05 10:14:51;;;;;;;8.27;1.80;;;;;;;12.47;51.99;100487.06;4935870;29;20102;-86
2022/01/05 10:17:24;;;;;;;11.10;1.58;;;;;;;13.41;50.25;100493.13;4935563;29;20028;-86
2022/01/05 10:20:06;;;;;;;9.13;1.42;;;;;;;14.11;50.65;100491.06;4935671;29;20027;-87
2022/01/05 10:22:35;;;;;;;12.13;1.98;;;;;;;14.70;49.51;100498.53;4935651;29;20023;-87
2022/01/05 10:25:03;;;;;;;12.55;1.60;;;;;;;15.15;46.28;100494.75;4935563;29;20031;-87
2022/01/05 10:27:29;;;;;;;9.65;2.15;;;;;;;15.91;46.79;100489.06;4935780;29;20043;-87
2022/01/05 10:29:57;;;;;;;12.82;2.30;;;;;;;15.97;44.01;100494.63;4935570;29;20031;-87
2022/01/05 10:32:24;;;;;;;6.53;1.55;;;;;;;16.62;42.01;100508.16;4942189;29;20099;-87
2022/01/05 10:35:17;;;;;;;8.38;1.95;;;;;;;16.54;41.96;100515.16;4954727;28;20078;-87
2022/01/05 10:37:45;;;;;;;12.90;2.33;;;;;;;16.70;40.39;100512.78;4953364;29;20146;-87
2022/01/05 10:40:14;;;;;;;9.90;2.03;;;;;;;17.00;41.18;100506.50;4954466;28;20023;-87
2022/01/05 10:42:42;;;;;;;7.47;1.95;;;;;;;17.38;40.22;100512.66;4954491;28;20027;-87
2022/01/05 10:45:11;;;;;;;14.18;2.22;;;;;;;17.48;40.62;100523.22;4954536;28;20089;-87
2022/01/05 10:47:37;;;;;;;4.97;1.30;;;;;;;17.51;40.03;100527.41;4949241;28;20032;-88
2022/01/05 10:50:11;;;;;;;9.90;1.98;;;;;;;17.88;38.33;100526.56;4935160;29;20520;-87
2022/01/05 10:52:36;;;;;;;15.50;2.05;;;;;;;18.15;38.97;100531.84;4935313;29;20371;-87
2022/01/05 10:55:17;;;;;;;7.97;1.33;;;;;;;17.90;40.06;100528.06;4935177;29;20158;-87
2022/01/05 10:58:07;;;;;;;10.32;1.85;;;;;;;18.32;39.97;100531.97;4934937;29;20035;-87
2022/01/05 11:00:45;;;;;;;11.98;2.75;;;;;;;17.78;39.68;100518.59;4935282;29;20031;-87
2022/01/05 11:03:35;;;;;;;7.88;1.73;;;;;;;18.38;39.70;100526.06;4935868;29;20032;-87
2022/01/05 11:06:14;;;;;;;6.22;2.00;;;;;;;18.43;39.77;100534.44;4934845;29;20024;-87
2022/01/05 11:08:49;;;;;;;8.45;1.38;;;;;;;18.50;37.42;100531.97;4935008;29;20082;-88
2022/01/05 11:11:41;;;;;;;11.65;2.08;;;;;;;18.50;39.45;100529.31;4934840;29;20028;-87
2022/01/05 11:14:14;;;;;;;14.10;12.40;;;;;;;17.92;38.58;100527.94;4933858;29;20277;-88
2022/01/05 11:16:54;;;;;;;8.57;1.63;;;;;;;18.21;39.12;100541.03;4935272;29;20032;-87
2022/01/05 11:19:23;;;;;;;9.50;1.70;;;;;;;18.27;38.39;100543.09;4934476;29;20057;-87
2022/01/05 11:22:16;;;;;;;7.50;2.05;;;;;;;18.07;39.06;100550.34;4935123;29;20470;-87
2022/01/05 11:24:53;;;;;;;10.48;2.00;;;;;;;17.82;39.16;100549.19;4934819;29;20470;-87
2022/01/05 11:27:20;;;;;;;7.78;1.48;;;;;;;18.23;38.98;100547.84;4935087;29;20375;-87
2022/01/05 11:29:47;;;;;;;7.85;1.80;;;;;;;18.47;39.46;100559.72;4935071;29;20031;-88